Ratings

354 records found.
ID Full Name Model Yacht Namesort ascending Spinnaker Rating Non-spin. Rating Base Rating Genoa Spin. Adj. Genoa Non-spin. Adj. Mainsail Adj. Spin. Pole Adj. Asym Adj. Mast Adj. Prop. Adj. Misc. Adj. Yacht Club Certificate Expires Status
15205 Bill Haynie Peterson 45' Custom cold-molded yawl Zingara 127 133 96 9 12 0 0 16 0 0 0 N/A 4/30/2021 Provisional
14844 Timothy J Grimes Melges 24 Zephyros 99 112 99 0 0 0 0 0 0 0 0 NYYC / Sail Newport 4/30/2021 Published
14824 jim rapinchuk Tartan Ten Zephindra 129 145 126 3 3 0 0 0 0 0 0 4/30/2021 Published
15150 Peter Becker J/105 Young American #146 93 111 93 0 0 0 0 0 0 0 0 American Yacht Club 4/30/2021 Published
15087 CHARLES SAMUELSON Beneteau First 42 TM LK Yaquina 76 98 78 4 4 0 0 0 0 0 -9 New Bedford 4/30/2021 Published
14932 Thomas J. Vander Salm Morris Justine 36 Yankee Girl 167 178 156 3 3 0 0 11 -3 -3 0 Corinthian in Marblehead 4/30/2021 Published
15000 Jim Barber Camper Nicholson 35-5 WISP 178 200 159 7 7 0 0 0 0 6 0 Blue Water Sailing Club 4/30/2021 Published
14969 Levangie, Daniel CTM-60 Ted Hood Windwalker 62 74 42 8 8 0 0 9 0 0 0 NYYC 4/30/2021 Published
15121 Leo Vasiliev Figaro 2 Williwaw 64 74 57 0 0 0 0 7 0 0 0 4/30/2021 Published
14972 Millard, Michael Quest 30 Wildeyes 90 110 84 9 12 0 0 0 0 0 -3 Indian Harbor 4/30/2021 Published
15152 Grimes, Paul 1 Design 35 Modified Wilde Agnes 30 50 36 0 0 0 0 -6 0 0 0 Conanicut YC 4/30/2021 Published
15033 Grimes, Paul 1 Design 35 Modified Wilde Agnes 30 50 36 0 0 0 0 -6 0 0 0 Conanicut YC 4/30/2021 Renewed
14546 DOUGLAS CURTISS J/111 Wicked 2.0 40 62 42 0 0 0 0 -2 0 0 0 New Bedford YC 4/30/2021 Published
14584 Higginbottom, Stephen J/30 ODR Wicked 138 155 138 0 0 0 0 0 0 0 0 Coles River YC 4/30/2021 Published
15184 Todd Stuart Swan 56 SD C/R White Rhino -6 12 -9 1 1 0 0 2 0 0 0 NYYC 4/30/2021 Published
14583 Whaley, John Goman Express 35 Whalayed 113 135 102 6 6 0 0 -1 0 0 0 Quonset yc 4/30/2021 Published
15230 Steven Eddleston CTM Rhodes Sloop (12 Metre) Weatherly 29 41 30 0 0 0 0 -1 0 0 0 IYAC 4/30/2021 Published
14989 Lefort, Jack Hinckley B50 Watermark -28 -11 -36 0 0 0 0 2 0 0 0 NYYC/CYC 4/30/2021 Published
15097 Collin Leon Pac52 Warrior Won -87 -65 -87 0 0 0 0 0 0 0 0 4/30/2021 Published
14986 Griffin Spinney Mini Transat 6.50 Prototypy Warrior 21 106 121 108 0 0 0 0 -2 0 0 0 Ida Lewis Yacht Club 4/30/2021 Published
14797 PHILIPPE PERUT SUN FAST 35 WARRIOR 110 131 93 8 8 0 0 0 0 6 0 RI Yatch Club 4/30/2021 Published
14946 Fragomen, Austin T. J105 OD Warlock 93 111 93 0 0 0 0 0 0 0 0 New York YC 4/30/2021 Published
14697 Luke Brockman Olson 30 Wall-E 105 126 105 0 0 0 0 0 0 0 0 Great Lakes Singlehanded Society (GLSS) 4/30/2021 Published
14522 Morris, Wayne Cal 33-2 Voyager 147 171 132 9 12 0 0 0 0 0 0 Rhode Island YC 4/30/2021 Published
14816 Del Bonis, James Jeanneau Sun Fast 37 Vixen 119 130 105 5 4 0 0 6 0 0 0 East Greewich 4/30/2021 Published
14701 Del Bonis, James Jeanneau Sun Fast 37 Vixen 114 125 105 0 -1 0 0 6 0 0 0 East Greewich 4/30/2021 Published
15118 Leo Vasiliev Figaro 2 Vicitan 64 74 57 0 0 0 0 7 0 0 0 4/30/2021 Published
15064 Chris Cannon Alden 63 Verissimo 66 89 57 5 5 0 0 -2 0 0 0 Conanicut Yacht Club, NYYC 4/30/2021 Published
15028 Michael Tyrwhitt-Drake Pearson Vanguard Venture 238 257 228 1 1 0 0 0 0 6 0 4/30/2021 Published
14486 Kneller, Bill J/109 Vento Solare 66 85 75 -6 -9 0 0 -3 0 0 0 CHNYC 4/30/2021 Published
14488 Kneller, Bill J/109 ODR Vento Solare 75 94 75 0 0 0 0 0 0 0 0 CHNYC 4/30/2021 Published
14574 Zani, Mike Graves Constellation Vela 189 204 186 0 0 0 0 0 0 0 0 Tiverton YC 4/30/2021 Published
14874 Manchester, Bob J/133 Vamoose 17 18 9 12 0 0 2 0 0 0 Barrington YC 4/30/2021 Published
15062 Brooke Mastrorio J/109 ODR Ursa 75 94 75 0 0 0 0 0 0 0 0 4/30/2021 Published
14826 Brooke Mastrorio J/109 Ursa 66 85 75 -9 -9 0 0 0 0 0 0 4/30/2021 Published
15112 Scott Ferguson J35 Una 86 107 75 8 8 0 0 0 0 0 0 Conanicut 4/30/2021 Published
14850 Joseph Lamora J 24 Twinkle Twinkle 174 193 174 0 0 0 0 0 0 0 0 SIRA 4/30/2021 Published
14695 Stone, Daniel J/92 Triple Play 105 122 105 0 0 0 0 0 0 0 0 Wickford YC 4/30/2021 Published
15161 Charles Zechel Contessa 35 ToughOld Bird 136 146 114 6 6 0 0 13 0 0 0 Community Boaing Boston 4/30/2021 Published
14575 Horton, Bob Scampi 30 Tigger 177 199 177 0 0 0 0 0 0 0 0 Spar Island Racing association 4/30/2021 Published
14591 Choiniere, Brian N. Hunter 310 Three Sheets 174 198 162 9 12 0 0 -3 0 0 0 Rhode Island YC 4/30/2021 Published
14822 Thorsen, Kenneth R. Pearson 28-1 30+ Thora 201 222 195 6 6 0 0 0 0 0 0 East Greenwich 4/30/2021 Published
14891 Alfred Nazareth III Cal 25 MKII Therapy 231 253 222 6 6 0 0 0 0 0 0 Rhode Island 4/30/2021 Published
15232 Jay O'Brien Swan 442 TM The Rover 73 90 69 4 4 0 0 3 0 0 -3 NYYC 4/30/2021 Published
14866 William Snyder J/80 ODR The Party Tree 120 137 120 0 0 0 0 0 0 0 0 Sail Newport 4/30/2021 Published
14858 Lincoln Mossop Club Swan 42 The Cat Came Back -3 18 -3 0 0 0 0 0 0 0 0 New York YC Jamestown YC 4/30/2021 Published
14532 Walsh, Jonathan S2 9.2 A Tendresse II 202 223 189 4 4 0 0 0 0 6 0 Bristol Yacht Club 4/30/2021 Published
14557 Iriye, Robert & Marie J/24 Tenacious 174 193 174 0 0 0 0 0 0 0 0 Newport YC 4/30/2021 Published
14775 Borge, Chuck C&C 41 Tenacious 92 107 72 9 9 -2 0 7 0 0 0 4/30/2021 Published
14922 Staats, Jeffrey L. Pearson Ensign ODR Temptation 255 269 255 0 0 0 0 0 0 0 0 Newport YC 4/30/2021 Published

Pages